Time;durP1;ratioP1;P1;durP2;ratioP2;P2;SDS_P1;SDS_P2;PMS_P1;PMS_P2;Temp;Humidity;BMP_temperature;BMP_pressure;BME280_temperature;BME280_humidity;BME280_pressure;Samples;Min_cycle;Max_cycle;Signal;HPM_P1;HPM_P2
2024/03/29 00:00:47;;;;;;;3.67;1.65;;;;;;;9.87;91.02;99014.13;5068148;28;20079;-66
2024/03/29 00:03:34;;;;;;;10.95;2.20;;;;;;;9.82;91.48;99013.09;5063880;28;20536;-65
2024/03/29 00:06:21;;;;;;;6.65;2.20;;;;;;;9.82;91.00;99007.66;5064272;28;20052;-66
2024/03/29 00:09:08;;;;;;;6.13;2.00;;;;;;;9.78;90.26;99001.22;5065287;28;20044;-66
2024/03/29 00:11:55;;;;;;;5.72;2.20;;;;;;;9.74;90.68;99002.97;5093746;28;20117;-65
2024/03/29 00:14:43;;;;;;;6.60;1.67;;;;;;;9.74;89.93;99000.25;5083597;28;20184;-65
2024/03/29 00:17:30;;;;;;;7.32;2.22;;;;;;;9.73;90.23;99006.00;5084092;28;20131;-65
2024/03/29 00:20:17;;;;;;;9.80;2.60;;;;;;;9.68;90.06;99004.19;5043593;28;20080;-66
2024/03/29 00:23:04;;;;;;;4.82;1.77;;;;;;;9.65;91.04;99007.53;5077699;28;20361;-65
2024/03/29 00:25:51;;;;;;;7.13;2.15;;;;;;;9.66;91.04;99024.63;5064918;28;20098;-66
2024/03/29 00:28:39;;;;;;;5.10;1.98;;;;;;;9.65;90.75;99026.56;5068244;28;20048;-65
2024/03/29 00:31:26;;;;;;;9.43;2.15;;;;;;;9.64;90.82;99027.66;5067148;28;20052;-66
2024/03/29 00:34:13;;;;;;;6.93;2.33;;;;;;;9.64;91.68;99030.38;5097675;28;20073;-66
2024/03/29 00:37:00;;;;;;;6.28;1.92;;;;;;;9.62;91.57;99027.19;5085160;28;20035;-65
2024/03/29 00:39:47;;;;;;;5.88;1.83;;;;;;;9.63;90.47;99031.50;5080343;28;20044;-66
2024/03/29 00:42:34;;;;;;;5.15;1.85;;;;;;;9.61;90.89;99033.72;5080756;28;20124;-67
2024/03/29 00:45:21;;;;;;;4.15;1.80;;;;;;;9.56;90.98;99034.63;5096804;28;20044;-66
2024/03/29 00:48:08;;;;;;;4.70;1.90;;;;;;;9.57;91.36;99027.25;5081570;28;20126;-66
2024/03/29 00:50:55;;;;;;;3.60;1.83;;;;;;;9.58;91.24;99034.31;5062915;28;20079;-66
2024/03/29 00:53:42;;;;;;;6.50;2.10;;;;;;;9.62;90.47;99037.22;5094700;28;20179;-66
2024/03/29 00:56:29;;;;;;;5.57;1.80;;;;;;;9.56;91.21;99041.97;5082973;28;20479;-66
2024/03/29 00:59:17;;;;;;;3.33;1.85;;;;;;;9.56;90.32;99050.13;5073870;28;20126;-67
2024/03/29 01:02:04;;;;;;;5.32;2.10;;;;;;;9.53;90.42;99039.88;5048622;28;20487;-65
2024/03/29 01:04:51;;;;;;;6.00;2.08;;;;;;;9.48;91.07;99042.72;5063067;28;20048;-68
2024/03/29 01:07:41;;;;;;;5.45;2.00;;;;;;;9.45;91.16;99046.03;5053922;28;20133;-64
2024/03/29 01:10:27;;;;;;;7.55;2.08;;;;;;;9.46;91.76;99044.94;5087573;28;20052;-66
2024/03/29 01:13:14;;;;;;;4.45;1.73;;;;;;;9.48;91.97;99040.00;5093755;28;20094;-66
2024/03/29 01:16:02;;;;;;;4.45;1.88;;;;;;;9.51;90.70;99045.63;5063422;28;20101;-65
2024/03/29 01:18:49;;;;;;;6.28;2.13;;;;;;;9.46;91.08;99045.72;5058234;28;20082;-66
2024/03/29 01:21:37;;;;;;;4.28;1.70;;;;;;;9.50;91.50;99038.56;5048819;28;20412;-65
2024/03/29 01:24:24;;;;;;;3.78;1.90;;;;;;;9.46;91.32;99028.63;5043007;28;20505;-66
2024/03/29 01:27:11;;;;;;;6.95;2.00;;;;;;;9.46;91.24;99023.19;5059474;28;20040;-66
2024/03/29 01:29:58;;;;;;;4.00;1.65;;;;;;;9.45;91.85;99018.84;5076160;28;20416;-66
2024/03/29 01:32:45;;;;;;;3.97;1.58;;;;;;;9.45;90.59;99016.91;5087794;28;20044;-66
2024/03/29 01:35:32;;;;;;;5.13;1.85;;;;;;;9.44;91.17;99009.88;5074849;28;20079;-66
2024/03/29 01:38:20;;;;;;;5.22;1.70;;;;;;;9.43;90.34;99011.00;5049478;28;20496;-67
2024/03/29 01:41:06;;;;;;;5.72;1.90;;;;;;;9.38;90.93;98997.53;5079645;28;20071;-67
2024/03/29 01:43:54;;;;;;;4.60;1.98;;;;;;;9.35;91.45;98990.75;5096362;28;20140;-66
2024/03/29 01:46:41;;;;;;;5.40;1.83;;;;;;;9.35;91.74;98982.59;5070237;28;20416;-67
2024/03/29 01:49:29;;;;;;;3.63;1.55;;;;;;;9.39;91.63;98970.03;5040696;28;20409;-66
2024/03/29 01:52:17;;;;;;;7.60;2.40;;;;;;;9.38;90.52;98954.84;5074786;28;20048;-66
2024/03/29 01:55:04;;;;;;;4.30;1.77;;;;;;;9.36;91.03;98956.25;5042508;28;20102;-65
2024/03/29 01:57:51;;;;;;;4.40;1.70;;;;;;;9.33;90.97;98967.72;5089439;28;20048;-66
2024/03/29 02:00:56;;;;;;;5.10;1.88;;;;;;;9.34;91.84;98967.41;5075227;28;20044;-65
2024/03/29 02:03:43;;;;;;;4.55;1.70;;;;;;;9.34;91.75;98964.69;5043784;28;20051;-66
2024/03/29 02:06:30;;;;;;;6.50;1.85;;;;;;;9.35;91.32;98966.28;5078918;28;20086;-66
2024/03/29 02:09:17;;;;;;;6.25;1.95;;;;;;;9.34;91.84;98963.91;5092596;28;20079;-66
2024/03/29 02:12:05;;;;;;;5.32;2.20;;;;;;;9.36;91.79;98970.66;5061885;28;20496;-66
2024/03/29 02:14:52;;;;;;;5.60;1.85;;;;;;;9.35;92.39;98974.44;5078485;28;20131;-66
2024/03/29 02:17:39;;;;;;;8.90;2.20;;;;;;;9.36;92.08;98988.88;5077221;28;20459;-66
2024/03/29 02:20:26;;;;;;;6.93;1.80;;;;;;;9.34;92.44;98991.88;5079411;28;20055;-66
2024/03/29 02:23:28;;;;;;;7.25;2.05;;;;;;;9.38;92.03;98998.31;5082055;28;20092;-66
2024/03/29 02:26:15;;;;;;;6.32;2.30;;;;;;;9.36;92.25;99014.13;5084611;28;20056;-66
2024/03/29 02:29:02;;;;;;;4.47;2.00;;;;;;;9.37;92.72;98999.41;5090974;28;20052;-66
2024/03/29 02:31:49;;;;;;;4.65;1.67;;;;;;;9.41;92.32;99007.78;5084612;28;20055;-66
2024/03/29 02:34:36;;;;;;;3.63;1.73;;;;;;;9.38;91.99;99013.84;5084882;28;20043;-66
2024/03/29 02:37:23;;;;;;;5.55;2.17;;;;;;;9.39;93.25;99007.28;5071149;28;20083;-66
2024/03/29 02:40:11;;;;;;;4.85;2.05;;;;;;;9.38;93.06;99003.75;5085244;28;20047;-66
2024/03/29 02:42:58;;;;;;;10.20;2.45;;;;;;;9.43;92.76;99011.00;5081475;28;20561;-66
2024/03/29 02:45:45;;;;;;;8.25;2.10;;;;;;;9.42;92.87;99016.72;5052000;28;20090;-66
2024/03/29 02:48:32;;;;;;;5.63;2.00;;;;;;;9.42;93.03;99012.09;5086821;28;20055;-66
2024/03/29 02:51:19;;;;;;;5.50;1.50;;;;;;;9.46;93.08;99020.47;5098792;28;20492;-66
2024/03/29 02:54:06;;;;;;;4.72;2.00;;;;;;;9.45;93.57;99027.00;5069352;28;20504;-67
2024/03/29 02:56:53;;;;;;;3.90;1.98;;;;;;;9.48;93.81;99023.69;5079538;28;20128;-66
2024/03/29 02:59:43;;;;;;;5.38;2.13;;;;;;;9.47;93.45;99005.75;5082711;28;20050;-67
2024/03/29 03:02:30;;;;;;;4.38;1.70;;;;;;;9.50;94.15;99021.44;5082948;28;20039;-67
2024/03/29 03:05:17;;;;;;;4.88;1.73;;;;;;;9.52;95.38;99020.03;5064862;28;20062;-65
2024/03/29 03:11:24;;;;;;;5.13;2.20;;;;;;;9.55;93.20;99014.00;5042836;28;20052;-66
2024/03/29 03:14:11;;;;;;;2.55;1.45;;;;;;;9.62;97.71;99024.47;5058817;28;20128;-66
2024/03/29 03:16:58;;;;;;;2.60;1.60;;;;;;;9.66;99.76;99025.44;5044682;28;20055;-66
2024/03/29 03:19:45;;;;;;;3.72;1.45;;;;;;;9.68;100.00;99036.81;5077083;28;20044;-66
2024/03/29 03:22:32;;;;;;;3.05;1.45;;;;;;;9.70;100.00;99040.03;5077880;28;20071;-66
2024/03/29 03:25:19;;;;;;;4.40;1.40;;;;;;;9.67;100.00;99040.66;5079220;28;20076;-66
2024/03/29 03:28:06;;;;;;;5.05;1.33;;;;;;;9.69;100.00;99052.03;5068148;28;20183;-67
2024/03/29 03:30:54;;;;;;;2.85;1.73;;;;;;;9.68;100.00;99055.06;5058689;28;20044;-66
2024/03/29 03:33:41;;;;;;;3.40;1.38;;;;;;;9.67;100.00;99043.38;5070051;28;20056;-66
2024/03/29 03:36:28;;;;;;;3.53;1.58;;;;;;;9.63;100.00;99042.38;5077404;28;20040;-65
2024/03/29 03:39:15;;;;;;;3.17;1.25;;;;;;;9.63;100.00;99034.22;5049387;28;20119;-66
2024/03/29 03:42:02;;;;;;;3.25;1.50;;;;;;;9.56;100.00;99036.53;5075750;28;20040;-65
2024/03/29 03:44:49;;;;;;;2.67;1.20;;;;;;;9.53;100.00;99048.84;5056481;28;20041;-65
2024/03/29 03:47:36;;;;;;;3.13;1.42;;;;;;;9.51;100.00;99044.81;5029989;28;20044;-65
2024/03/29 03:50:23;;;;;;;4.07;1.67;;;;;;;9.50;100.00;99043.19;5054443;28;20040;-66
2024/03/29 03:53:10;;;;;;;3.15;1.55;;;;;;;9.51;100.00;99044.81;5062772;28;20072;-65
2024/03/29 03:55:57;;;;;;;3.33;1.50;;;;;;;9.50;100.00;99043.19;5063171;28;20064;-65
2024/03/29 03:58:45;;;;;;;3.58;1.10;;;;;;;9.49;100.00;99036.16;5064300;28;20044;-65
2024/03/29 04:01:32;;;;;;;1.88;1.20;;;;;;;9.45;100.00;99046.81;5076861;28;20086;-66
2024/03/29 04:04:19;;;;;;;1.85;1.27;;;;;;;9.47;100.00;99047.31;5043620;28;20455;-65
2024/03/29 04:07:06;;;;;;;3.22;1.40;;;;;;;9.45;100.00;99054.16;5071278;28;20066;-65
2024/03/29 04:09:53;;;;;;;4.10;1.52;;;;;;;9.46;100.00;99058.53;5086412;28;20048;-65
2024/03/29 04:12:40;;;;;;;2.97;1.30;;;;;;;9.45;100.00;99051.47;5078257;28;20105;-65
2024/03/29 04:15:27;;;;;;;2.45;1.30;;;;;;;9.45;100.00;99051.47;5076967;28;20075;-66
2024/03/29 04:18:14;;;;;;;4.10;1.70;;;;;;;9.44;100.00;99066.16;5057912;28;20079;-65
2024/03/29 04:21:02;;;;;;;2.55;1.40;;;;;;;9.43;100.00;99059.09;5043704;28;20036;-66
2024/03/29 04:23:49;;;;;;;4.85;1.60;;;;;;;9.41;100.00;99062.16;5055667;28;20040;-66
2024/03/29 04:26:38;;;;;;;2.50;1.40;;;;;;;9.41;100.00;99066.78;5085754;28;20054;-65
2024/03/29 04:29:25;;;;;;;3.05;1.45;;;;;;;9.37;100.00;99066.56;5074902;28;20488;-66
2024/03/29 04:32:12;;;;;;;3.85;1.55;;;;;;;9.36;100.00;99052.19;5062473;28;20098;-66
2024/03/29 04:35:00;;;;;;;4.63;2.03;;;;;;;9.38;100.00;99052.69;5096728;28;20051;-65
2024/03/29 04:37:47;;;;;;;3.33;1.35;;;;;;;9.35;100.00;99053.28;5097385;28;20511;-65
2024/03/29 04:40:34;;;;;;;3.15;1.52;;;;;;;9.33;100.00;99054.69;5070543;28;20126;-65
2024/03/29 04:43:25;;;;;;;3.25;1.20;;;;;;;9.35;100.00;99066.84;5082633;28;20058;-66
2024/03/29 04:46:13;;;;;;;2.00;1.30;;;;;;;9.35;100.00;99069.59;5071211;28;20048;-65
2024/03/29 04:49:00;;;;;;;3.40;1.33;;;;;;;9.36;100.00;99065.78;5064141;28;20044;-65
2024/03/29 04:51:50;;;;;;;3.72;1.48;;;;;;;9.33;100.00;99065.56;5078025;28;20048;-65
2024/03/29 04:54:37;;;;;;;4.05;1.65;;;;;;;9.34;100.00;99067.19;5061839;28;20047;-64
2024/03/29 04:57:24;;;;;;;1.77;1.10;;;;;;;9.28;100.00;99061.03;5051571;28;20138;-66
2024/03/29 05:00:11;;;;;;;5.72;1.42;;;;;;;9.27;100.00;99064.88;5076190;28;20184;-66
2024/03/29 05:02:58;;;;;;;2.60;1.10;;;;;;;9.25;100.00;99066.28;5062866;28;20401;-66
2024/03/29 05:05:45;;;;;;;4.00;1.40;;;;;;;9.24;100.00;99065.47;5074821;28;20036;-66
2024/03/29 05:08:32;;;;;;;5.25;1.52;;;;;;;9.20;100.00;99080.75;5076055;28;20108;-66
2024/03/29 05:11:20;;;;;;;3.65;1.38;;;;;;;9.20;100.00;99074.53;5071267;28;20432;-66
2024/03/29 05:14:07;;;;;;;6.22;1.63;;;;;;;9.20;100.00;99071.81;5042553;28;20067;-66
2024/03/29 05:16:54;;;;;;;3.83;1.50;;;;;;;9.16;100.00;99072.44;5041863;28;20041;-66
2024/03/29 05:19:41;;;;;;;3.30;1.63;;;;;;;9.12;100.00;99065.19;5042454;28;20045;-66
2024/03/29 05:22:28;;;;;;;3.05;1.30;;;;;;;9.12;100.00;99060.53;5071863;28;20052;-66
2024/03/29 05:25:15;;;;;;;2.05;1.20;;;;;;;9.14;100.00;99071.13;5065232;28;20067;-65
2024/03/29 05:28:03;;;;;;;3.70;1.30;;;;;;;9.16;100.00;99082.47;5062190;28;20075;-65
2024/03/29 05:30:50;;;;;;;2.13;1.20;;;;;;;9.14;100.00;99079.28;5074686;28;20109;-66
2024/03/29 05:33:37;;;;;;;4.53;1.85;;;;;;;9.12;100.00;99070.63;5053600;28;20072;-64
2024/03/29 05:36:24;;;;;;;4.07;1.45;;;;;;;9.10;100.00;99062.75;5043194;28;20044;-65
2024/03/29 05:39:11;;;;;;;5.72;1.52;;;;;;;9.08;100.00;99056.00;5057294;28;20044;-66
2024/03/29 05:41:58;;;;;;;4.43;2.13;;;;;;;9.07;100.00;99046.25;5087599;28;20074;-67
2024/03/29 05:44:45;;;;;;;5.20;1.60;;;;;;;9.05;100.00;99059.34;5049344;28;20039;-66
2024/03/29 05:47:32;;;;;;;2.72;1.40;;;;;;;9.06;100.00;99066.38;5075557;28;20177;-66
2024/03/29 05:50:19;;;;;;;3.20;1.52;;;;;;;9.06;100.00;99066.38;5075534;28;20130;-66
2024/03/29 05:53:06;;;;;;;4.88;1.50;;;;;;;9.04;100.00;99055.78;5057255;28;20493;-66
2024/03/29 05:55:53;;;;;;;3.67;1.50;;;;;;;9.06;100.00;99056.31;5061950;28;20040;-66
2024/03/29 05:58:40;;;;;;;5.47;1.70;;;;;;;9.03;100.00;99066.97;5075376;28;20076;-66
2024/03/29 06:01:27;;;;;;;3.20;1.27;;;;;;;9.02;100.00;99065.34;5075531;28;20164;-66
2024/03/29 06:04:19;;;;;;;3.30;1.42;;;;;;;9.03;100.00;99072.41;5081125;28;20048;-65
2024/03/29 06:07:08;;;;;;;4.80;1.88;;;;;;;9.03;100.00;99072.41;5052373;28;20060;-65
2024/03/29 06:09:55;;;;;;;3.67;1.90;;;;;;;9.00;100.00;99075.75;5064585;28;20040;-65
2024/03/29 06:12:42;;;;;;;2.78;1.48;;;;;;;8.96;100.00;99083.66;5080194;28;20079;-66
2024/03/29 06:18:36;;;;;;;3.00;1.67;;;;;;;8.94;100.00;99088.59;5079754;28;20048;-66
2024/03/29 06:21:23;;;;;;;3.15;1.45;;;;;;;8.93;100.00;99090.50;5054241;28;20512;-66
2024/03/29 06:24:14;;;;;;;4.35;1.45;;;;;;;8.98;100.00;99103.19;5059291;28;20449;-65
2024/03/29 06:27:02;;;;;;;3.05;1.27;;;;;;;8.95;100.00;99096.44;5020124;28;20132;-66
2024/03/29 06:29:49;;;;;;;2.63;1.50;;;;;;;8.96;100.00;99095.34;5057495;28;20055;-65
2024/03/29 06:32:37;;;;;;;3.13;1.50;;;;;;;8.98;100.00;99097.75;5076642;28;20048;-66
2024/03/29 06:35:24;;;;;;;2.20;1.58;;;;;;;8.96;100.00;99103.47;5082626;28;20048;-65
2024/03/29 06:38:11;;;;;;;2.25;1.25;;;;;;;8.98;100.00;99105.91;5070431;28;20048;-65
2024/03/29 06:40:58;;;;;;;3.80;1.77;;;;;;;8.99;100.00;99099.34;5043719;28;20044;-66
2024/03/29 06:43:45;;;;;;;3.58;1.48;;;;;;;9.02;100.00;99089.81;5044206;28;20088;-65
2024/03/29 06:46:34;;;;;;;6.13;1.63;;;;;;;9.00;100.00;99100.19;5058763;28;20180;-66
2024/03/29 06:49:21;;;;;;;3.00;1.55;;;;;;;9.00;100.00;99097.47;5046026;28;20048;-63
2024/03/29 06:52:08;;;;;;;3.47;1.35;;;;;;;9.01;100.00;99085.50;5062999;28;20144;-65
2024/03/29 06:54:55;;;;;;;5.10;1.65;;;;;;;9.03;100.00;99088.72;5048989;28;20056;-66
2024/03/29 06:57:42;;;;;;;7.82;1.90;;;;;;;9.03;100.00;99067.78;5062314;28;20318;-65
2024/03/29 07:00:29;;;;;;;4.30;2.05;;;;;;;9.02;100.00;99071.63;5078655;28;20072;-65
2024/03/29 07:03:18;;;;;;;4.50;2.00;;;;;;;9.05;100.00;99075.63;5069659;28;20084;-65
2024/03/29 07:06:05;;;;;;;3.38;1.70;;;;;;;9.06;100.00;99088.09;5047110;28;20040;-66
2024/03/29 07:08:52;;;;;;;3.72;1.50;;;;;;;9.04;100.00;99079.44;5084196;28;20044;-65
2024/03/29 07:11:39;;;;;;;4.80;1.75;;;;;;;9.06;100.00;99088.09;5097575;28;20043;-66
2024/03/29 07:14:28;;;;;;;4.22;1.50;;;;;;;9.08;100.00;99081.25;5073900;28;20044;-65
2024/03/29 07:17:15;;;;;;;4.38;1.85;;;;;;;9.09;100.00;99076.63;5079313;28;20468;-66
2024/03/29 07:20:04;;;;;;;1.55;1.25;;;;;;;9.22;100.00;99091.34;5083136;28;20052;-66
2024/03/29 07:22:51;;;;;;;3.60;1.42;;;;;;;9.21;100.00;99090.53;5086287;28;20054;-67
2024/03/29 07:25:38;;;;;;;3.95;1.80;;;;;;;9.22;100.00;99097.59;5089396;28;20052;-66
2024/03/29 07:28:25;;;;;;;3.08;1.42;;;;;;;9.24;100.00;99097.28;5079160;28;20090;-66
2024/03/29 07:31:12;;;;;;;4.93;1.58;;;;;;;9.24;100.00;99100.81;5095899;28;20532;-67
2024/03/29 07:34:00;;;;;;;2.97;1.40;;;;;;;9.23;100.00;99106.53;5062727;28;20044;-67
2024/03/29 07:36:47;;;;;;;2.17;1.42;;;;;;;9.25;100.00;99116.00;5098075;28;20059;-66
2024/03/29 07:39:34;;;;;;;2.08;1.60;;;;;;;9.24;100.00;99114.41;5082728;28;20079;-66
2024/03/29 07:42:22;;;;;;;6.40;1.70;;;;;;;9.23;100.00;99099.19;5065078;28;20080;-65
2024/03/29 07:45:09;;;;;;;3.05;1.85;;;;;;;9.20;100.00;99107.94;5054104;28;20070;-66
2024/03/29 07:47:56;;;;;;;4.68;2.35;;;;;;;9.21;100.00;99106.03;5062545;28;20121;-67
2024/03/29 07:50:44;;;;;;;5.90;1.60;;;;;;;9.17;100.00;99105.84;5076940;28;20060;-66
2024/03/29 07:53:31;;;;;;;5.97;1.80;;;;;;;9.13;100.00;99115.69;5065701;28;20135;-66
2024/03/29 07:56:19;;;;;;;3.97;1.48;;;;;;;9.13;100.00;99121.13;5095459;28;20040;-66
2024/03/29 07:59:06;;;;;;;2.42;1.80;;;;;;;9.14;100.00;99117.31;5082349;28;20043;-66
2024/03/29 08:01:55;;;;;;;2.80;1.58;;;;;;;9.22;100.00;99102.22;5076864;28;20483;-70
2024/03/29 08:04:44;;;;;;;4.78;1.60;;;;;;;9.38;100.00;99117.94;5072366;27;20043;-70
2024/03/29 08:07:34;;;;;;;3.20;1.63;;;;;;;9.38;100.00;99115.19;5086812;27;20047;-68
2024/03/29 08:10:22;;;;;;;3.65;1.70;;;;;;;9.36;100.00;99111.97;5102098;28;20129;-68
2024/03/29 08:13:09;;;;;;;3.38;1.95;;;;;;;9.35;100.00;99098.69;5083964;28;20059;-66
2024/03/29 08:16:01;;;;;;;2.78;1.65;;;;;;;9.34;100.00;99089.72;5062631;28;20059;-66
2024/03/29 08:18:48;;;;;;;2.40;1.65;;;;;;;9.33;100.00;99107.16;5069664;28;20043;-65
2024/03/29 08:21:35;;;;;;;2.78;1.55;;;;;;;9.35;100.00;99113.06;5097241;28;20491;-67
2024/03/29 08:24:22;;;;;;;3.78;1.45;;;;;;;9.37;100.00;99102.72;5057141;28;20044;-66
2024/03/29 08:27:09;;;;;;;3.40;1.70;;;;;;;9.42;100.00;99092.84;5092745;28;20048;-65
2024/03/29 08:29:56;;;;;;;4.97;1.90;;;;;;;9.42;100.00;99099.09;5099445;28;20047;-66
2024/03/29 08:32:43;;;;;;;3.13;1.65;;;;;;;9.46;100.00;99108.25;5083998;28;20043;-66
2024/03/29 08:35:32;;;;;;;3.70;1.85;;;;;;;9.51;100.00;99115.50;5096727;28;20035;-66
2024/03/29 08:38:19;;;;;;;3.03;1.73;;;;;;;9.55;100.00;99116.50;5076662;28;20531;-65
2024/03/29 08:41:06;;;;;;;2.47;1.55;;;;;;;9.58;100.00;99132.22;5077010;28;20093;-68
2024/03/29 08:43:53;;;;;;;6.55;2.28;;;;;;;9.50;100.00;99120.13;5088221;28;20079;-66
2024/03/29 08:46:40;;;;;;;3.42;1.98;;;;;;;9.47;100.00;99123.44;5062320;28;20079;-65
2024/03/29 08:49:27;;;;;;;3.20;2.05;;;;;;;9.49;100.00;99120.44;5063025;28;20051;-66
2024/03/29 08:52:15;;;;;;;3.28;2.10;;;;;;;9.48;100.00;99133.22;5063958;28;20430;-67
2024/03/29 08:55:02;;;;;;;5.97;2.67;;;;;;;9.52;100.00;99136.13;5091616;27;20047;-66
2024/03/29 08:57:49;;;;;;;3.35;1.58;;;;;;;9.54;100.00;99150.22;5093666;28;20040;-65
2024/03/29 09:00:36;;;;;;;3.63;1.95;;;;;;;9.62;100.00;99149.53;5074400;28;20052;-64
2024/03/29 09:03:24;;;;;;;4.53;2.20;;;;;;;9.64;100.00;99158.19;5067957;28;20500;-67
2024/03/29 09:06:11;;;;;;;4.05;1.73;;;;;;;9.64;100.00;99147.31;5063190;28;20493;-66
2024/03/29 09:08:58;;;;;;;7.25;1.98;;;;;;;9.70;100.00;99139.88;5077388;28;20170;-67
2024/03/29 09:11:45;;;;;;;5.30;2.47;;;;;;;9.73;100.00;99133.81;5077715;28;20127;-65
2024/03/29 09:14:32;;;;;;;5.28;2.08;;;;;;;9.81;100.00;99133.09;5067838;28;20044;-66
2024/03/29 09:17:21;;;;;;;5.03;2.20;;;;;;;9.86;100.00;99133.00;5078614;28;20052;-66
2024/03/29 09:20:09;;;;;;;6.65;2.20;;;;;;;9.92;100.00;99139.13;5050502;28;20040;-67
2024/03/29 09:22:56;;;;;;;9.30;2.67;;;;;;;10.02;100.00;99134.25;5078955;28;20093;-66
2024/03/29 09:25:43;;;;;;;6.40;2.50;;;;;;;10.05;100.00;99132.84;5068355;28;20060;-66
2024/03/29 09:28:31;;;;;;;4.93;2.00;;;;;;;10.19;100.00;99146.41;5097032;28;20179;-66
2024/03/29 09:31:18;;;;;;;4.30;1.95;;;;;;;10.15;100.00;99146.25;5093482;28;20069;-66
2024/03/29 09:34:05;;;;;;;6.65;2.70;;;;;;;10.16;100.00;99147.84;5064980;28;20044;-66
2024/03/29 09:36:52;;;;;;;7.00;2.50;;;;;;;10.28;100.00;99149.22;5080634;28;20052;-66
2024/03/29 09:39:39;;;;;;;5.18;2.70;;;;;;;10.34;100.00;99154.28;5094124;28;20040;-66
2024/03/29 09:42:30;;;;;;;6.55;2.63;;;;;;;10.35;100.00;99168.69;5079168;28;20054;-66
2024/03/29 09:45:18;;;;;;;6.35;2.28;;;;;;;10.31;100.00;99173.94;5081531;28;20404;-66
2024/03/29 09:48:07;;;;;;;4.32;2.03;;;;;;;10.29;100.00;99172.63;5078228;28;20076;-66
2024/03/29 09:50:55;;;;;;;3.47;2.15;;;;;;;10.29;100.00;99169.91;5078628;28;20045;-66
2024/03/29 09:53:44;;;;;;;6.00;2.25;;;;;;;10.40;100.00;99180.25;5070771;28;20048;-67
2024/03/29 09:56:31;;;;;;;6.93;2.58;;;;;;;10.49;100.00;99193.97;5053009;28;20551;-66
2024/03/29 09:59:18;;;;;;;6.15;2.50;;;;;;;10.46;100.00;99183.66;5080361;28;20105;-67
2024/03/29 10:02:19;;;;;;;5.93;2.35;;;;;;;10.63;100.00;99174.84;5066936;28;20040;-67
2024/03/29 10:05:08;;;;;;;6.22;2.72;;;;;;;10.72;100.00;99185.81;5066865;28;20165;-68
2024/03/29 10:07:56;;;;;;;6.50;2.30;;;;;;;10.75;100.00;99182.44;5052896;28;20067;-66
2024/03/29 10:10:43;;;;;;;5.28;2.30;;;;;;;10.75;100.00;99185.19;5053748;28;20060;-67
2024/03/29 10:13:30;;;;;;;8.50;2.83;;;;;;;10.65;100.00;99187.06;5065888;28;20051;-68
2024/03/29 10:16:21;;;;;;;3.33;2.00;;;;;;;10.64;100.00;99174.53;5049151;28;20080;-66
2024/03/29 10:19:10;;;;;;;5.82;2.35;;;;;;;10.66;100.00;99171.50;5079657;28;20048;-66
2024/03/29 10:22:06;;;;;;;6.63;2.65;;;;;;;10.71;100.00;99170.59;5032867;28;20098;-67
2024/03/29 10:24:53;;;;;;;5.75;2.50;;;;;;;10.73;100.00;99166.44;5073467;28;20081;-68
2024/03/29 10:27:40;;;;;;;4.65;2.25;;;;;;;10.82;100.00;99170.03;5031228;28;20048;-67
2024/03/29 10:30:28;;;;;;;6.70;2.42;;;;;;;10.84;100.00;99173.22;5083529;28;20507;-67
2024/03/29 10:33:16;;;;;;;4.75;2.30;;;;;;;10.85;100.00;99171.34;5046978;28;20417;-67
2024/03/29 10:36:04;;;;;;;5.78;2.08;;;;;;;10.86;100.00;99181.91;5018566;28;20049;-68
2024/03/29 10:38:51;;;;;;;4.05;2.08;;;;;;;10.86;100.00;99176.44;5050532;28;20071;-67
2024/03/29 10:41:43;;;;;;;5.00;2.35;;;;;;;10.86;100.00;99186.56;5045339;28;20048;-67
2024/03/29 10:44:30;;;;;;;5.53;2.00;;;;;;;10.86;100.00;99181.91;5031589;28;20049;-67
2024/03/29 10:47:21;;;;;;;7.43;2.30;;;;;;;10.94;100.00;99172.16;5046720;28;20052;-67
2024/03/29 10:50:10;;;;;;;6.78;2.38;;;;;;;11.09;100.00;99179.97;5061392;28;20048;-66
2024/03/29 10:52:59;;;;;;;5.82;1.98;;;;;;;11.27;100.00;99180.06;5066180;28;20048;-66
2024/03/29 10:55:47;;;;;;;6.78;2.25;;;;;;;11.50;100.00;99178.91;5078817;28;20047;-66
2024/03/29 10:58:36;;;;;;;7.25;2.13;;;;;;;11.70;100.00;99185.69;5064225;28;20051;-67
2024/03/29 11:01:24;;;;;;;2.67;1.98;;;;;;;11.93;100.00;99208.28;5046772;28;20420;-66
2024/03/29 11:04:16;;;;;;;4.10;2.20;;;;;;;11.85;100.00;99200.84;5045292;28;20055;-66
2024/03/29 11:07:14;;;;;;;4.82;2.17;;;;;;;11.81;100.00;99205.34;5045643;28;20092;-68
2024/03/29 11:10:04;;;;;;;7.22;2.13;;;;;;;11.92;100.00;99217.59;5079300;28;20121;-66
2024/03/29 11:13:03;;;;;;;8.30;2.03;;;;;;;11.94;100.00;99193.50;5091457;28;20093;-66
2024/03/29 11:15:50;;;;;;;2.80;1.40;;;;;;;12.00;100.00;99204.28;5098603;28;20044;-66
2024/03/29 11:18:38;;;;;;;2.22;1.50;;;;;;;11.94;100.00;99193.50;5078094;28;20051;-67
2024/03/29 11:21:28;;;;;;;4.22;1.40;;;;;;;11.83;100.00;99175.78;5081062;28;20054;-68
2024/03/29 11:24:19;;;;;;;2.88;1.48;;;;;;;11.79;100.00;99169.38;5071865;28;20139;-67
2024/03/29 11:27:15;;;;;;;3.03;1.98;;;;;;;11.77;100.00;99165.34;5063731;28;20056;-68
2024/03/29 11:30:03;;;;;;;4.40;1.70;;;;;;;11.75;100.00;99165.66;5083922;28;20138;-69
2024/03/29 11:32:55;;;;;;;3.33;1.70;;;;;;;11.77;100.00;99179.78;5069868;28;20377;-67
2024/03/29 11:35:42;;;;;;;2.70;1.60;;;;;;;11.79;100.00;99191.19;5098128;28;20051;-67
2024/03/29 11:38:36;;;;;;;3.50;1.67;;;;;;;11.85;100.00;99203.56;5086037;27;20515;-67
2024/03/29 11:41:24;;;;;;;3.03;1.63;;;;;;;11.91;100.00;99199.63;5083250;27;20096;-66
2024/03/29 11:44:11;;;;;;;1.70;1.50;;;;;;;12.01;100.00;99209.44;5105058;27;20043;-67
2024/03/29 11:47:00;;;;;;;3.42;1.33;;;;;;;12.15;100.00;99212.03;5079489;28;20043;-66
2024/03/29 11:49:58;;;;;;;3.33;1.58;;;;;;;12.20;100.00;99202.91;5078342;28;20071;-68
2024/03/29 11:52:45;;;;;;;1.83;1.48;;;;;;;12.21;100.00;99205.28;5091654;28;20051;-67
2024/03/29 11:55:34;;;;;;;2.35;1.58;;;;;;;12.19;100.00;99209.47;5082874;28;20055;-67
2024/03/29 11:58:25;;;;;;;3.97;1.40;;;;;;;12.12;100.00;99216.22;5071370;28;20045;-66
2024/03/29 12:01:14;;;;;;;3.15;1.60;;;;;;;12.09;100.00;99207.84;5084324;28;20569;-67
2024/03/29 12:04:01;;;;;;;2.80;1.63;;;;;;;12.08;100.00;99231.63;5097555;28;20054;-67
2024/03/29 12:06:49;;;;;;;3.38;1.58;;;;;;;12.14;100.00;99224.88;5078830;28;20113;-67
2024/03/29 12:09:36;;;;;;;2.40;1.60;;;;;;;12.15;100.00;99225.69;5069770;28;20126;-68
2024/03/29 12:12:23;;;;;;;1.27;1.10;;;;;;;12.30;100.00;99227.97;5083943;28;20461;-67
2024/03/29 12:15:11;;;;;;;3.30;1.67;;;;;;;12.30;100.00;99230.69;5085501;28;20097;-68
2024/03/29 12:17:59;;;;;;;2.53;1.30;;;;;;;12.48;100.00;99233.44;5070670;28;20055;-66
2024/03/29 12:20:49;;;;;;;3.42;1.60;;;;;;;12.60;100.00;99222.69;5077203;28;20098;-67
2024/03/29 12:23:36;;;;;;;3.58;1.65;;;;;;;12.70;100.00;99225.13;5048742;28;20048;-66
2024/03/29 12:26:23;;;;;;;1.55;1.38;;;;;;;12.65;100.00;99232.66;5047622;28;20048;-67
2024/03/29 12:29:10;;;;;;;3.30;1.67;;;;;;;12.73;100.00;99240.88;5111384;27;20071;-68
2024/03/29 12:32:00;;;;;;;3.13;1.45;;;;;;;12.77;100.00;99241.84;5103386;27;20082;-66
2024/03/29 12:34:47;;;;;;;2.92;1.50;;;;;;;12.78;100.00;99232.50;5092871;28;20047;-66
2024/03/29 12:37:35;;;;;;;2.63;1.70;;;;;;;12.87;100.00;99239.88;5089213;27;20042;-67
2024/03/29 12:40:22;;;;;;;2.60;1.58;;;;;;;12.86;100.00;99241.03;5053363;28;20048;-67
2024/03/29 12:43:10;;;;;;;2.78;1.33;;;;;;;12.90;100.00;99229.13;5063720;28;20170;-67
2024/03/29 12:45:57;;;;;;;2.80;1.10;;;;;;;12.92;98.53;99231.56;5049308;28;20040;-67
2024/03/29 12:48:44;;;;;;;2.72;1.10;;;;;;;12.96;97.18;99235.22;5091012;28;20086;-67
2024/03/29 12:51:35;;;;;;;2.38;1.20;;;;;;;12.97;97.29;99234.13;5084095;28;20047;-67
2024/03/29 12:54:23;;;;;;;3.10;1.35;;;;;;;13.02;100.00;99228.47;5083254;28;20048;-68
2024/03/29 12:57:10;;;;;;;1.35;1.13;;;;;;;13.02;99.08;99225.75;5096616;28;20047;-68
2024/03/29 12:59:57;;;;;;;2.58;1.40;;;;;;;13.01;94.87;99229.59;5036701;28;20041;-67
2024/03/29 13:02:44;;;;;;;4.85;1.58;;;;;;;13.05;96.00;99219.63;5077130;28;20094;-67
2024/03/29 13:05:35;;;;;;;3.17;1.00;;;;;;;13.08;93.82;99218.97;5062340;28;20040;-67
2024/03/29 13:08:22;;;;;;;1.85;1.15;;;;;;;13.20;100.00;99232.81;5056821;28;20063;-67
2024/03/29 13:11:10;;;;;;;2.15;1.35;;;;;;;13.27;100.00;99237.78;5050146;28;20493;-68
2024/03/29 13:13:57;;;;;;;2.25;1.30;;;;;;;13.20;98.46;99230.06;5075682;28;20458;-67
2024/03/29 13:16:44;;;;;;;2.55;1.38;;;;;;;13.14;92.90;99225.88;5049454;28;20493;-67